Time;durP1;ratioP1;P1;durP2;ratioP2;P2;SDS_P1;SDS_P2;PMS_P1;PMS_P2;Temp;Humidity;BMP_temperature;BMP_pressure;BME280_temperature;BME280_humidity;BME280_pressure;Samples;Min_cycle;Max_cycle;Signal;HPM_P1;HPM_P2
2022/02/17 00:02:01;;;;;;;28.73;15.90;;;;;;;3.74;100.00;97386.16;5093494;28;20016;-74
2022/02/17 00:04:26;;;;;;;33.45;18.00;;;;;;;3.63;100.00;97379.91;5093422;28;20389;-72
2022/02/17 00:06:52;;;;;;;28.00;15.75;;;;;;;3.63;100.00;97387.22;5093656;28;20055;-73
2022/02/17 00:09:17;;;;;;;29.15;15.02;;;;;;;3.60;100.00;97391.25;5091993;28;20012;-73
2022/02/17 00:11:42;;;;;;;35.30;16.50;;;;;;;3.57;100.00;97378.25;5090267;28;20119;-73
2022/02/17 00:14:08;;;;;;;35.03;19.58;;;;;;;3.45;100.00;97385.78;5092952;28;20027;-73
2022/02/17 00:16:34;;;;;;;39.97;21.27;;;;;;;3.27;100.00;97388.13;5093311;28;20024;-74
2022/02/17 00:19:02;;;;;;;45.25;25.55;;;;;;;2.89;100.00;97389.25;5081196;28;20146;-72
2022/02/17 00:21:27;;;;;;;47.30;25.85;;;;;;;2.68;100.00;97378.34;5081363;28;20032;-72
2022/02/17 00:23:53;;;;;;;51.22;26.30;;;;;;;2.52;100.00;97387.38;5074466;28;20043;-72
2022/02/17 00:26:18;;;;;;;49.45;25.92;;;;;;;2.43;100.00;97388.94;5074510;28;20035;-73
2022/02/17 00:28:43;;;;;;;56.25;28.13;;;;;;;2.27;100.00;97380.94;5075228;28;21055;-73
2022/02/17 00:31:09;;;;;;;54.22;27.98;;;;;;;2.13;100.00;97386.75;5074549;28;20017;-73
2022/02/17 00:33:38;;;;;;;53.22;27.00;;;;;;;2.01;100.00;97396.91;5074598;28;20044;-73
2022/02/17 00:36:05;;;;;;;52.55;27.63;;;;;;;1.92;100.00;97382.25;5073992;28;20085;-72
2022/02/17 00:38:31;;;;;;;62.38;29.35;;;;;;;1.89;100.00;97358.50;5073874;28;20016;-73
2022/02/17 00:40:56;;;;;;;55.80;29.45;;;;;;;1.89;100.00;97355.78;5073626;28;20024;-73
2022/02/17 00:43:22;;;;;;;53.72;27.20;;;;;;;1.99;100.00;97357.78;5073707;28;20091;-74
2022/02/17 00:45:47;;;;;;;56.22;28.20;;;;;;;1.97;100.00;97355.31;5073827;28;20042;-73
2022/02/17 00:48:13;;;;;;;63.58;29.38;;;;;;;1.93;100.00;97353.41;5073580;28;20382;-73
2022/02/17 00:50:38;;;;;;;63.15;29.48;;;;;;;1.92;100.00;97349.06;5073603;28;20032;-73
2022/02/17 00:53:04;;;;;;;72.93;32.53;;;;;;;1.93;100.00;97346.13;5073724;28;20123;-73
2022/02/17 00:55:29;;;;;;;67.18;28.30;;;;;;;1.86;100.00;97332.03;5072593;28;20558;-73
2022/02/17 00:57:54;;;;;;;64.32;29.00;;;;;;;1.75;100.00;97341.13;5073320;28;20075;-73
2022/02/17 01:00:20;;;;;;;76.97;29.75;;;;;;;1.81;100.00;97356.28;5073285;28;20541;-72
2022/02/17 01:02:45;;;;;;;71.35;30.33;;;;;;;1.66;100.00;97377.66;5073359;28;20039;-73
2022/02/17 01:05:11;;;;;;;87.53;34.25;;;;;;;1.66;100.00;97380.34;5072810;28;20033;-72
2022/02/17 01:07:36;;;;;;;84.13;34.55;;;;;;;1.74;100.00;97382.59;5073176;28;20439;-73
2022/02/17 01:10:03;;;;;;;87.50;38.85;;;;;;;1.81;100.00;97375.13;5073252;28;20077;-73
2022/02/17 01:12:28;;;;;;;85.40;34.28;;;;;;;1.84;100.00;97380.03;5073170;28;20025;-73
2022/02/17 01:14:54;;;;;;;74.15;31.75;;;;;;;1.91;100.00;97383.31;5073062;28;20864;-73
2022/02/17 01:17:19;;;;;;;68.05;30.65;;;;;;;2.08;100.00;97367.84;5073257;28;20036;-73
2022/02/17 01:19:45;;;;;;;65.97;29.35;;;;;;;2.06;100.00;97366.47;5073251;28;20037;-74
2022/02/17 01:22:12;;;;;;;60.35;29.48;;;;;;;2.15;100.00;97352.28;5074055;28;20033;-74
2022/02/17 01:24:37;;;;;;;60.33;29.73;;;;;;;2.35;100.00;97342.72;5075039;28;20543;-73
2022/02/17 01:27:03;;;;;;;64.53;32.17;;;;;;;2.45;100.00;97345.47;5072768;28;20058;-78
2022/02/17 01:29:28;;;;;;;60.13;27.25;;;;;;;2.52;100.00;97340.69;5071531;28;20070;-72
2022/02/17 01:31:54;;;;;;;53.58;27.35;;;;;;;2.59;100.00;97330.50;5071711;28;20492;-73
2022/02/17 01:34:19;;;;;;;55.42;29.13;;;;;;;2.63;100.00;97315.41;5073063;28;20496;-73
2022/02/17 01:36:45;;;;;;;50.08;24.88;;;;;;;2.68;100.00;97312.72;5072820;28;20024;-73
2022/02/17 01:39:10;;;;;;;49.95;24.55;;;;;;;2.90;100.00;97342.28;5072799;28;20111;-73
2022/02/17 01:41:36;;;;;;;51.17;25.20;;;;;;;3.10;100.00;97361.31;5072762;28;20031;-73
2022/02/17 01:44:02;;;;;;;44.03;23.27;;;;;;;3.23;100.00;97353.53;5072693;28;20030;-73
2022/02/17 01:46:34;;;;;;;45.95;24.63;;;;;;;3.17;100.00;97332.16;5072726;28;20016;-73
2022/02/17 01:48:59;;;;;;;55.42;26.73;;;;;;;3.18;100.00;97340.00;5072686;28;20020;-73
2022/02/17 01:51:25;;;;;;;49.47;26.60;;;;;;;3.03;100.00;97331.84;5072637;28;20028;-73
2022/02/17 01:53:50;;;;;;;49.47;26.65;;;;;;;2.98;100.00;97329.09;5072662;28;20347;-73
2022/02/17 01:56:17;;;;;;;47.35;25.58;;;;;;;3.04;100.00;97330.75;5072509;28;20029;-73
2022/02/17 01:58:42;;;;;;;51.53;26.67;;;;;;;2.96;100.00;97320.44;5073170;28;20758;-73
2022/02/17 02:01:08;;;;;;;52.20;27.35;;;;;;;2.89;100.00;97325.25;5074258;28;20027;-74
2022/02/17 02:03:33;;;;;;;46.97;24.45;;;;;;;2.85;100.00;97307.94;5076284;28;20033;-75
2022/02/17 02:05:59;;;;;;;50.65;25.73;;;;;;;2.79;100.00;97309.00;5076379;28;20473;-73
2022/02/17 02:08:24;;;;;;;47.33;25.85;;;;;;;2.95;100.00;97328.78;5070920;28;20024;-73
2022/02/17 02:10:50;;;;;;;49.22;25.00;;;;;;;3.05;100.00;97328.84;5071016;28;20024;-73
2022/02/17 02:13:16;;;;;;;51.95;26.55;;;;;;;3.09;100.00;97329.97;5072180;28;20028;-73
2022/02/17 02:15:42;;;;;;;49.53;26.50;;;;;;;3.09;100.00;97319.97;5071481;28;20086;-73
2022/02/17 02:18:08;;;;;;;48.13;25.98;;;;;;;3.19;100.00;97311.91;5072362;28;20367;-74
2022/02/17 02:20:33;;;;;;;42.33;20.48;;;;;;;3.43;100.00;97304.16;5071764;28;20032;-75
2022/02/17 02:22:59;;;;;;;36.60;20.67;;;;;;;3.68;100.00;97309.63;5071866;28;20752;-76
2022/02/17 02:25:25;;;;;;;29.65;15.70;;;;;;;4.13;100.00;97303.47;5072092;28;20031;-73
2022/02/17 02:27:53;;;;;;;29.13;15.25;;;;;;;4.56;100.00;97293.16;5072015;28;20024;-73
2022/02/17 02:30:18;;;;;;;21.98;11.93;;;;;;;5.03;100.00;97288.16;5072004;28;20025;-74
2022/02/17 02:32:43;;;;;;;24.38;13.15;;;;;;;5.25;100.00;97293.22;5071824;28;20039;-74
2022/02/17 02:35:09;;;;;;;23.70;13.65;;;;;;;5.39;100.00;97277.97;5071857;28;20031;-74
2022/02/17 02:37:34;;;;;;;24.33;13.13;;;;;;;5.53;100.00;97302.59;5071767;28;20024;-73
2022/02/17 02:40:00;;;;;;;21.58;12.02;;;;;;;5.57;100.00;97309.09;5071628;28;20115;-73
2022/02/17 02:42:25;;;;;;;20.65;12.35;;;;;;;5.56;100.00;97300.13;5071529;28;20025;-74
2022/02/17 02:44:50;;;;;;;23.83;13.65;;;;;;;5.53;100.00;97272.75;5071796;28;20036;-73
2022/02/17 02:47:16;;;;;;;25.17;14.40;;;;;;;5.53;100.00;97261.91;5071101;28;20024;-73
2022/02/17 02:49:41;;;;;;;26.98;14.52;;;;;;;5.62;100.00;97252.91;5071493;28;20489;-73
2022/02/17 02:52:07;;;;;;;28.88;14.82;;;;;;;5.70;100.00;97246.09;5071296;28;20077;-74
2022/02/17 02:54:34;;;;;;;26.92;14.13;;;;;;;5.75;100.00;97259.59;5071719;28;20031;-74
2022/02/17 02:56:59;;;;;;;26.08;15.30;;;;;;;5.78;100.00;97264.47;5071029;28;20489;-74
2022/02/17 02:59:25;;;;;;;26.67;14.68;;;;;;;5.77;100.00;97266.38;5070092;28;20052;-73
2022/02/17 03:01:50;;;;;;;26.02;14.13;;;;;;;5.79;100.00;97250.63;5070749;28;20037;-74
2022/02/17 03:04:17;;;;;;;26.30;15.10;;;;;;;5.81;100.00;97261.19;5071130;28;20048;-74
2022/02/17 03:06:42;;;;;;;25.67;15.75;;;;;;;5.81;100.00;97250.34;5069830;28;20054;-74
2022/02/17 03:09:08;;;;;;;30.17;15.15;;;;;;;5.89;100.00;97239.72;5071176;28;20098;-73
2022/02/17 03:11:34;;;;;;;28.00;15.73;;;;;;;5.95;100.00;97232.38;5072795;28;20474;-74
2022/02/17 03:14:00;;;;;;;28.45;16.88;;;;;;;5.95;100.00;97213.38;5076460;28;20439;-73
2022/02/17 03:16:28;;;;;;;29.08;16.73;;;;;;;5.95;100.00;97199.81;5077915;28;20032;-74
2022/02/17 03:18:55;;;;;;;32.67;17.65;;;;;;;5.98;100.00;97220.94;5075421;28;20088;-74
2022/02/17 03:21:21;;;;;;;32.17;17.35;;;;;;;6.00;100.00;97213.31;5072498;28;20047;-74
2022/02/17 03:23:46;;;;;;;33.65;17.67;;;;;;;6.01;100.00;97220.38;5071065;28;20056;-73
2022/02/17 03:26:11;;;;;;;31.75;17.73;;;;;;;6.01;100.00;97230.41;5071392;28;20095;-74
2022/02/17 03:28:37;;;;;;;30.63;16.88;;;;;;;6.02;100.00;97221.97;5070726;28;20081;-73
2022/02/17 03:31:02;;;;;;;31.17;18.35;;;;;;;6.01;100.00;97225.81;5070821;28;20088;-74
2022/02/17 03:33:28;;;;;;;33.72;18.15;;;;;;;6.03;100.00;97217.34;5070551;28;20371;-73
2022/02/17 03:35:53;;;;;;;35.33;19.70;;;;;;;6.07;100.00;97202.94;5070962;28;20024;-73
2022/02/17 03:38:18;;;;;;;33.55;18.98;;;;;;;6.09;100.00;97194.50;5070636;28;20048;-74
2022/02/17 03:40:44;;;;;;;34.17;18.92;;;;;;;6.16;100.00;97193.09;5069505;28;20523;-74
2022/02/17 03:43:09;;;;;;;34.97;20.10;;;;;;;6.14;100.00;97195.25;5069322;28;20062;-73
2022/02/17 03:45:35;;;;;;;36.58;20.08;;;;;;;6.16;100.00;97217.53;5070667;28;20037;-74
2022/02/17 03:48:00;;;;;;;34.28;19.63;;;;;;;6.16;100.00;97217.53;5070509;28;20131;-74
2022/02/17 03:50:25;;;;;;;37.17;19.77;;;;;;;6.15;100.00;97202.31;5069474;28;20119;-74
2022/02/17 03:52:51;;;;;;;33.35;18.80;;;;;;;6.18;100.00;97201.75;5070638;28;20031;-73
2022/02/17 03:55:16;;;;;;;34.45;18.60;;;;;;;6.21;100.00;97205.78;5071045;28;20028;-74
2022/02/17 03:57:44;;;;;;;35.88;20.00;;;;;;;6.19;100.00;97189.00;5069190;28;20044;-73
2022/02/17 04:00:10;;;;;;;33.03;18.27;;;;;;;6.19;100.00;97197.94;5070615;28;20040;-74
2022/02/17 04:02:36;;;;;;;32.55;18.55;;;;;;;6.18;100.00;97209.88;5070549;28;20128;-74
2022/02/17 04:05:02;;;;;;;32.45;18.13;;;;;;;6.20;100.00;97207.69;5069271;28;20116;-74
2022/02/17 04:07:27;;;;;;;31.23;19.45;;;;;;;6.20;100.00;97207.69;5071019;28;20033;-74
2022/02/17 04:09:53;;;;;;;33.03;17.77;;;;;;;6.14;100.00;97208.84;5073635;28;20039;-74
2022/02/17 04:12:18;;;;;;;31.17;18.35;;;;;;;6.14;100.00;97210.75;5072296;28;20108;-74
2022/02/17 04:14:43;;;;;;;30.80;18.55;;;;;;;6.13;100.00;97217.28;5076177;28;20035;-74
2022/02/17 04:17:09;;;;;;;31.75;18.55;;;;;;;6.10;100.00;97217.84;5070945;28;20474;-74
2022/02/17 04:19:34;;;;;;;30.90;17.80;;;;;;;6.18;100.00;97242.47;5070614;28;20035;-73
2022/02/17 04:22:00;;;;;;;29.33;17.52;;;;;;;6.17;100.00;97242.78;5068955;28;20482;-73
2022/02/17 04:24:25;;;;;;;32.20;17.40;;;;;;;6.13;100.00;97239.81;5070129;28;20077;-73
2022/02/17 04:26:50;;;;;;;31.05;17.35;;;;;;;6.12;100.00;97246.31;5081194;28;20591;-72
2022/02/17 04:29:16;;;;;;;29.83;17.50;;;;;;;6.11;100.00;97247.41;5070142;28;20033;-73
2022/02/17 04:31:41;;;;;;;31.10;17.70;;;;;;;6.10;100.00;97247.72;5086076;28;20112;-85
2022/02/17 04:34:07;;;;;;;35.65;18.88;;;;;;;6.07;100.00;97240.94;5091960;28;20081;-73
2022/02/17 04:36:32;;;;;;;29.35;18.60;;;;;;;5.90;100.00;97219.63;5090061;28;20024;-73
2022/02/17 04:38:59;;;;;;;30.45;16.85;;;;;;;5.96;100.00;97238.59;5090022;28;20118;-72
2022/02/17 04:44:08;;;;;;;31.05;18.30;;;;;;;5.85;100.00;97237.84;5077868;28;20575;-73
2022/02/17 04:46:34;;;;;;;33.38;18.33;;;;;;;5.77;100.00;97236.53;5073362;28;20127;-73
2022/02/17 04:48:59;;;;;;;32.75;18.38;;;;;;;5.72;100.00;97233.84;5072341;28;20078;-72
2022/02/17 04:51:24;;;;;;;29.10;17.23;;;;;;;5.74;100.00;97247.13;5073260;28;20042;-72
2022/02/17 04:53:50;;;;;;;35.75;19.10;;;;;;;5.70;100.00;97241.44;5073356;28;20382;-74
2022/02/17 04:56:16;;;;;;;29.33;17.70;;;;;;;5.73;100.00;97223.81;5091841;28;20054;-73
2022/02/17 04:58:41;;;;;;;32.97;19.30;;;;;;;5.70;100.00;97208.09;5093339;28;20409;-73
2022/02/17 05:01:07;;;;;;;32.35;17.65;;;;;;;5.67;100.00;97203.25;5093627;28;20062;-73
2022/02/17 05:03:32;;;;;;;34.92;19.17;;;;;;;5.59;100.00;97204.66;5094730;28;20139;-75
2022/02/17 05:05:59;;;;;;;30.40;17.70;;;;;;;5.60;100.00;97186.47;5095342;28;20034;-73
2022/02/17 05:08:24;;;;;;;30.92;18.73;;;;;;;5.57;100.00;97195.16;5093276;28;20024;-73
2022/02/17 05:10:50;;;;;;;30.60;17.67;;;;;;;5.55;100.00;97181.06;5093507;28;20527;-73
2022/02/17 05:13:16;;;;;;;33.85;17.95;;;;;;;5.53;100.00;97191.41;5093107;28;20569;-73
2022/02/17 05:15:41;;;;;;;30.95;17.80;;;;;;;5.55;100.00;97183.78;5093362;28;20036;-73
2022/02/17 05:18:07;;;;;;;32.08;17.58;;;;;;;5.52;100.00;97184.34;5091932;28;20039;-72
2022/02/17 05:20:33;;;;;;;33.88;18.20;;;;;;;5.46;100.00;97185.47;5092979;28;20090;-73
2022/02/17 05:22:59;;;;;;;29.60;17.67;;;;;;;5.37;100.00;97180.66;5092885;28;20118;-73
2022/02/17 05:25:24;;;;;;;34.72;17.52;;;;;;;5.40;100.00;97182.81;5092005;28;20020;-73
2022/02/17 05:27:50;;;;;;;29.98;18.25;;;;;;;5.34;100.00;97181.22;5093117;28;20043;-73
2022/02/17 05:30:16;;;;;;;34.65;18.88;;;;;;;5.35;100.00;97173.91;5092857;28;20487;-73
2022/02/17 05:32:42;;;;;;;33.95;17.55;;;;;;;5.36;100.00;97175.50;5092828;28;20522;-73
2022/02/17 05:35:12;;;;;;;32.78;18.60;;;;;;;5.38;100.00;97178.75;5092663;28;20070;-72
2022/02/17 05:37:38;;;;;;;31.10;18.73;;;;;;;5.33;100.00;97178.78;5091394;28;20028;-73
2022/02/17 05:40:05;;;;;;;36.65;20.60;;;;;;;5.28;100.00;97179.63;5091704;28;20370;-73
2022/02/17 05:42:31;;;;;;;32.75;17.80;;;;;;;5.28;100.00;97192.38;5092627;28;20036;-73
2022/02/17 05:44:57;;;;;;;34.88;19.65;;;;;;;5.22;100.00;97180.75;5092627;28;20035;-72
2022/02/17 05:47:22;;;;;;;32.13;19.38;;;;;;;5.19;100.00;97192.16;5092365;28;20059;-73
2022/02/17 05:49:48;;;;;;;31.55;18.50;;;;;;;5.16;100.00;97200.84;5091054;28;20027;-74
2022/02/17 05:52:13;;;;;;;28.80;17.25;;;;;;;5.27;100.00;97182.59;5090356;28;20020;-73
2022/02/17 05:54:39;;;;;;;30.85;18.20;;;;;;;5.25;100.00;97185.63;5091440;28;20062;-73
2022/02/17 05:57:04;;;;;;;28.13;17.08;;;;;;;5.36;100.00;97175.50;5091904;28;20040;-73
2022/02/17 05:59:30;;;;;;;29.48;17.92;;;;;;;5.39;100.00;97166.78;5092793;28;20154;-76
2022/02/17 06:02:00;;;;;;;30.48;17.88;;;;;;;5.43;100.00;97159.72;5092237;28;20036;-74
2022/02/17 06:04:26;;;;;;;30.60;18.38;;;;;;;5.50;100.00;97162.13;5092210;28;20059;-72
2022/02/17 06:06:51;;;;;;;30.92;17.13;;;;;;;5.50;100.00;97162.13;5092447;28;20047;-71
2022/02/17 06:09:17;;;;;;;28.52;17.55;;;;;;;5.54;100.00;97171.31;5091840;28;20051;-71
2022/02/17 06:11:42;;;;;;;27.63;16.60;;;;;;;5.58;100.00;97156.91;5091767;28;20431;-74
2022/02/17 06:14:08;;;;;;;32.15;17.35;;;;;;;5.54;100.00;97150.44;5091837;28;20012;-73
2022/02/17 06:16:33;;;;;;;34.55;18.63;;;;;;;5.42;100.00;97152.69;5091420;28;20089;-74
2022/02/17 06:18:59;;;;;;;28.25;16.40;;;;;;;5.53;100.00;97159.66;5091997;28;20028;-73
2022/02/17 06:21:24;;;;;;;24.13;14.15;;;;;;;5.54;100.00;97144.22;5091664;28;20008;-73
2022/02/17 06:23:49;;;;;;;29.75;16.27;;;;;;;5.64;100.00;97155.75;5090911;28;20153;-73
2022/02/17 06:26:18;;;;;;;28.55;16.35;;;;;;;5.66;100.00;97163.63;5095393;28;20039;-74
2022/02/17 06:28:44;;;;;;;30.15;16.00;;;;;;;5.54;100.00;97149.63;5093455;28;20473;-74
2022/02/17 06:31:10;;;;;;;30.73;14.93;;;;;;;5.82;100.00;97179.53;5091275;28;20020;-72
2022/02/17 06:33:36;;;;;;;25.33;15.23;;;;;;;5.85;100.00;97167.28;5091693;28;20469;-75
2022/02/17 06:36:01;;;;;;;26.80;15.32;;;;;;;5.88;100.00;97175.69;5090846;28;20170;-74
2022/02/17 06:38:27;;;;;;;26.23;15.13;;;;;;;5.85;100.00;97172.72;5091046;28;20047;-74
2022/02/17 06:40:52;;;;;;;28.27;16.42;;;;;;;5.92;100.00;97167.78;5088462;28;20084;-73
2022/02/17 06:43:19;;;;;;;25.65;14.93;;;;;;;5.95;100.00;97169.13;5088488;28;20066;-74
2022/02/17 06:45:46;;;;;;;26.00;15.13;;;;;;;5.94;100.00;97173.75;5088977;28;20027;-75
2022/02/17 06:48:12;;;;;;;29.08;15.10;;;;;;;5.95;100.00;97186.22;5089897;28;20035;-75
2022/02/17 06:50:38;;;;;;;25.80;14.10;;;;;;;5.97;100.00;97205.75;5090580;28;20028;-74
2022/02/17 06:53:04;;;;;;;23.20;13.68;;;;;;;6.02;100.00;97191.31;5092709;28;20105;-77
2022/02/17 06:55:30;;;;;;;31.58;18.42;;;;;;;6.10;100.00;97196.94;5096213;28;20024;-77
2022/02/17 06:57:55;;;;;;;30.48;14.93;;;;;;;6.35;100.00;97194.00;5094869;28;20040;-74
2022/02/17 07:00:21;;;;;;;24.23;14.38;;;;;;;6.64;99.43;97204.03;5091332;28;20028;-74
2022/02/17 07:02:52;;;;;;;24.08;13.68;;;;;;;7.03;96.97;97204.63;5090894;28;20047;-74
2022/02/17 07:05:18;;;;;;;22.73;12.02;;;;;;;7.19;94.55;97200.63;5090637;28;20090;-74
2022/02/17 07:07:44;;;;;;;24.40;14.27;;;;;;;7.53;92.39;97205.84;5068990;28;20116;-74
2022/02/17 07:10:09;;;;;;;25.75;14.40;;;;;;;7.76;90.83;97207.69;5069631;28;20100;-74
2022/02/17 07:12:35;;;;;;;26.20;14.20;;;;;;;7.57;90.36;97197.91;5069100;28;20029;-74
2022/02/17 07:15:02;;;;;;;22.00;13.77;;;;;;;7.77;89.63;97200.34;5071050;28;20641;-74
2022/02/17 07:17:27;;;;;;;26.13;16.15;;;;;;;7.90;88.53;97203.09;5071267;28;20024;-74
2022/02/17 07:19:53;;;;;;;24.60;15.88;;;;;;;8.22;87.50;97218.66;5071196;28;20115;-79
2022/02/17 07:22:19;;;;;;;24.08;14.73;;;;;;;8.39;85.28;97216.22;5070862;28;20424;-74
2022/02/17 07:24:44;;;;;;;24.35;14.25;;;;;;;9.01;82.79;97216.69;5071551;28;20040;-74
2022/02/17 07:27:10;;;;;;;24.77;15.15;;;;;;;8.86;82.79;97217.81;5071756;28;20020;-75
2022/02/17 07:29:36;;;;;;;25.52;15.55;;;;;;;9.13;81.35;97233.34;5071765;28;20025;-76
2022/02/17 07:32:04;;;;;;;23.17;13.98;;;;;;;9.36;79.59;97228.78;5071433;28;20490;-75
2022/02/17 07:34:29;;;;;;;29.02;14.77;;;;;;;9.42;79.22;97231.13;5070963;28;20017;-75
2022/02/17 07:36:55;;;;;;;24.73;13.88;;;;;;;10.17;76.29;97227.78;5086939;28;20032;-74
2022/02/17 07:39:20;;;;;;;22.40;13.52;;;;;;;9.81;76.46;97235.16;5071948;28;20020;-74
2022/02/17 07:41:48;;;;;;;24.48;13.30;;;;;;;9.51;76.83;97226.53;5070695;28;20024;-75
2022/02/17 07:44:13;;;;;;;23.08;12.93;;;;;;;9.03;78.58;97219.91;5070677;28;20079;-75
2022/02/17 07:46:38;;;;;;;23.40;14.38;;;;;;;9.08;79.38;97228.00;5071479;28;20837;-73
2022/02/17 07:49:04;;;;;;;23.08;13.27;;;;;;;9.41;78.59;97215.84;5072539;28;20025;-76
2022/02/17 07:51:30;;;;;;;26.38;13.73;;;;;;;10.01;75.32;97230.03;5071355;28;20051;-74
2022/02/17 07:53:56;;;;;;;22.02;12.77;;;;;;;9.89;75.32;97220.78;5070698;28;20044;-73
2022/02/17 07:56:21;;;;;;;22.95;12.63;;;;;;;10.29;73.01;97219.81;5071273;28;20469;-74
2022/02/17 07:58:47;;;;;;;21.00;12.90;;;;;;;10.40;72.57;97231.31;5070506;28;20045;-73
2022/02/17 08:01:12;;;;;;;20.60;13.05;;;;;;;10.64;71.69;97238.06;5070495;28;20359;-73
2022/02/17 08:03:39;;;;;;;21.50;12.68;;;;;;;10.77;71.17;97247.31;5080334;28;20078;-74
2022/02/17 08:06:07;;;;;;;20.55;12.63;;;;;;;11.12;69.63;97251.00;5087883;28;20027;-74
2022/02/17 08:08:33;;;;;;;22.95;12.57;;;;;;;11.89;67.10;97247.69;5087164;28;20473;-75
2022/02/17 08:10:58;;;;;;;20.48;13.05;;;;;;;11.83;65.03;97236.06;5085523;28;20077;-74
2022/02/17 08:13:24;;;;;;;22.77;14.07;;;;;;;11.45;66.73;97237.75;5085386;28;20065;-73
2022/02/17 08:15:50;;;;;;;21.38;13.13;;;;;;;11.02;67.21;97248.56;5092227;28;20477;-74
2022/02/17 08:18:16;;;;;;;23.33;14.45;;;;;;;10.57;68.42;97245.91;5086960;28;20026;-74
2022/02/17 08:20:44;;;;;;;21.17;13.70;;;;;;;10.20;70.07;97243.56;5093009;28;20091;-73
2022/02/17 08:23:10;;;;;;;23.67;14.20;;;;;;;9.59;72.74;97228.53;5099788;28;20034;-76
2022/02/17 08:25:35;;;;;;;24.48;14.32;;;;;;;9.54;75.20;97230.56;5098940;28;20052;-71
2022/02/17 08:28:01;;;;;;;26.33;14.70;;;;;;;9.24;75.28;97228.50;5094987;28;20103;-69
2022/02/17 08:30:26;;;;;;;26.10;14.80;;;;;;;9.07;75.37;97234.56;5093266;28;20036;-71
2022/02/17 08:32:56;;;;;;;23.17;14.15;;;;;;;9.14;76.33;97232.25;5091661;28;20110;-71
2022/02/17 08:35:21;;;;;;;24.77;14.65;;;;;;;9.13;76.44;97239.63;5093500;28;20020;-70
2022/02/17 08:37:47;;;;;;;30.00;15.85;;;;;;;8.90;77.94;97242.53;5095956;28;20078;-71
2022/02/17 08:40:13;;;;;;;22.65;14.20;;;;;;;8.80;78.15;97229.88;5093411;28;20046;-73
2022/02/17 08:42:39;;;;;;;29.67;17.00;;;;;;;8.78;78.57;97223.94;5093440;28;20032;-73
2022/02/17 08:45:04;;;;;;;25.27;15.35;;;;;;;8.63;79.17;97221.50;5094408;28;20392;-74
2022/02/17 08:47:30;;;;;;;25.60;16.10;;;;;;;8.67;79.07;97238.06;5093078;28;20125;-74
2022/02/17 08:49:55;;;;;;;24.08;15.23;;;;;;;8.53;79.37;97241.56;5091625;28;20055;-74
2022/02/17 08:52:21;;;;;;;27.10;16.73;;;;;;;8.65;79.51;97243.00;5092632;28;20035;-73
2022/02/17 08:54:47;;;;;;;31.83;17.70;;;;;;;8.55;79.62;97242.06;5092736;28;20040;-73
2022/02/17 08:57:13;;;;;;;29.70;16.80;;;;;;;8.67;79.50;97238.06;5086303;28;20052;-73
2022/02/17 08:59:38;;;;;;;30.05;17.92;;;;;;;8.58;79.44;97235.25;5086243;28;20469;-76
2022/02/17 09:02:04;;;;;;;28.05;16.75;;;;;;;8.63;79.28;97231.59;5077829;28;20024;-73
2022/02/17 09:04:32;;;;;;;29.45;16.83;;;;;;;8.61;79.20;97216.34;5089156;28;20419;-73
2022/02/17 09:07:01;;;;;;;27.67;16.98;;;;;;;8.51;79.15;97224.72;5092516;28;20082;-73
2022/02/17 09:09:27;;;;;;;30.00;16.63;;;;;;;8.54;79.23;97232.31;5092509;28;20023;-74
2022/02/17 09:11:53;;;;;;;26.25;15.85;;;;;;;8.73;78.00;97234.97;5087731;28;20044;-73
2022/02/17 09:14:19;;;;;;;26.40;15.95;;;;;;;8.87;78.07;97221.31;5078642;28;20093;-74
2022/02/17 09:16:45;;;;;;;28.45;15.90;;;;;;;9.01;77.22;97227.59;5078531;28;20069;-77
2022/02/17 09:19:11;;;;;;;28.73;16.00;;;;;;;9.15;76.46;97236.56;5074093;28;20025;-74
2022/02/17 09:21:37;;;;;;;29.58;16.55;;;;;;;9.49;74.87;97239.66;5073973;28;20028;-74
2022/02/17 09:24:03;;;;;;;25.58;14.35;;;;;;;9.36;74.10;97231.53;5071922;28;20028;-74
2022/02/17 09:26:29;;;;;;;28.67;17.33;;;;;;;9.44;74.31;97237.06;5072666;28;20446;-73
2022/02/17 09:28:56;;;;;;;29.70;17.17;;;;;;;10.05;72.55;97246.63;5072968;28;20063;-73
2022/02/17 09:31:23;;;;;;;26.75;16.58;;;;;;;10.65;69.46;97238.88;5072487;28;20024;-74
2022/02/17 09:33:53;;;;;;;26.65;16.23;;;;;;;11.36;67.04;97220.50;5072792;28;20115;-74
2022/02/17 09:36:20;;;;;;;27.27;16.90;;;;;;;12.18;64.35;97239.63;5072902;28;20481;-74
2022/02/17 09:38:46;;;;;;;25.85;16.52;;;;;;;12.95;61.61;97249.66;5072150;28;20032;-75
2022/02/17 09:41:16;;;;;;;27.35;17.15;;;;;;;13.88;57.98;97245.66;5075632;28;20024;-74
2022/02/17 09:43:44;;;;;;;27.67;17.95;;;;;;;13.20;59.34;97240.53;5071946;28;20398;-74
2022/02/17 09:46:11;;;;;;;24.80;16.05;;;;;;;14.57;55.52;97220.34;5073133;28;20036;-74
2022/02/17 09:48:39;;;;;;;30.48;17.55;;;;;;;13.64;57.28;97225.44;5072756;28;20028;-74
2022/02/17 09:51:04;;;;;;;27.50;17.35;;;;;;;13.76;57.25;97225.53;5091732;28;20035;-74
2022/02/17 09:53:30;;;;;;;25.48;16.95;;;;;;;13.87;56.51;97224.81;5093016;28;20020;-73
2022/02/17 09:55:55;;;;;;;26.23;17.85;;;;;;;13.50;57.78;97241.38;5091935;28;20024;-73
2022/02/17 09:58:21;;;;;;;28.63;18.38;;;;;;;12.85;59.75;97240.66;5092798;28;20101;-74
2022/02/17 10:00:46;;;;;;;28.83;17.55;;;;;;;12.79;59.82;97230.16;5092436;28;20415;-74
2022/02/17 10:03:39;;;;;;;25.67;16.58;;;;;;;12.48;60.18;97229.59;5092622;28;20107;-73
2022/02/17 10:06:10;;;;;;;28.05;17.17;;;;;;;12.60;60.21;97219.56;5090010;28;20887;-73
2022/02/17 10:08:36;;;;;;;35.25;18.38;;;;;;;12.58;60.89;97207.31;5092629;28;20027;-72
2022/02/17 10:11:03;;;;;;;28.10;17.73;;;;;;;12.66;60.76;97210.03;5091208;28;20031;-73
2022/02/17 10:13:29;;;;;;;25.30;17.40;;;;;;;12.69;59.90;97214.03;5092750;28;20024;-73
2022/02/17 10:15:58;;;;;;;26.50;16.92;;;;;;;12.12;61.83;97217.03;5092488;28;20063;-73
2022/02/17 10:18:27;;;;;;;24.73;16.58;;;;;;;11.66;63.15;97220.38;5092255;28;20031;-73
2022/02/17 10:21:03;;;;;;;28.15;17.10;;;;;;;11.54;63.99;97228.41;5092449;28;20033;-73
2022/02/17 10:23:49;;;;;;;;;;;;;;;11.29;65.47;97221.75;5091410;28;20043;-73
2022/02/17 10:26:20;;;;;;;28.08;17.30;;;;;;;11.12;66.04;97204.47;5092687;28;19916;-74
2022/02/17 10:28:49;;;;;;;27.13;17.27;;;;;;;11.46;65.05;97193.63;5092233;28;20427;-73
2022/02/17 10:31:24;;;;;;;28.58;17.90;;;;;;;12.10;63.80;97199.31;5092222;28;20024;-73
2022/02/17 10:33:54;;;;;;;;;;;;;;;12.81;60.46;97200.47;5092982;28;20039;-74
2022/02/17 10:36:37;;;;;;;26.52;16.55;;;;;;;14.59;55.36;97193.31;5092801;28;19962;-73
2022/02/17 10:39:23;;;;;;;27.90;17.30;;;;;;;13.11;57.30;97193.09;5091878;28;20123;-74
2022/02/17 10:41:53;;;;;;;29.20;18.55;;;;;;;13.51;57.39;97191.59;5092259;28;20039;-74
2022/02/17 10:44:23;;;;;;;27.25;17.25;;;;;;;15.01;54.00;97199.44;5092201;28;20082;-73
2022/02/17 10:46:49;;;;;;;24.08;16.83;;;;;;;14.43;53.87;97187.63;5093397;28;20499;-74
2022/02/17 10:49:17;;;;;;;27.55;17.58;;;;;;;15.17;52.68;97197.63;5102981;28;20032;-74
2022/02/17 10:51:43;;;;;;;27.63;16.90;;;;;;;15.41;50.84;97191.34;5098649;28;20016;-74
2022/02/17 10:54:09;;;;;;;24.52;16.60;;;;;;;16.26;49.81;97202.19;5090506;28;20043;-77
2022/02/17 10:56:36;;;;;;;27.30;17.50;;;;;;;15.07;51.22;97194.53;5092256;28;20016;-74
2022/02/17 10:59:05;;;;;;;26.35;17.77;;;;;;;15.44;50.61;97207.19;5091601;28;20063;-73
2022/02/17 11:01:31;;;;;;;26.17;17.45;;;;;;;15.27;51.23;97186.16;5091529;28;20055;-74
2022/02/17 11:03:58;;;;;;;26.17;17.83;;;;;;;15.30;51.07;97196.50;5090687;28;20477;-74
2022/02/17 11:06:23;;;;;;;24.17;16.77;;;;;;;15.88;50.12;97192.44;5091624;28;20047;-74
2022/02/17 11:08:51;;;;;;;25.73;17.10;;;;;;;16.25;48.78;97192.34;5091415;28;20020;-74
2022/02/17 11:11:18;;;;;;;26.70;16.55;;;;;;;15.29;49.68;97183.06;5091514;28;20032;-73
2022/02/17 11:13:50;;;;;;;26.58;17.92;;;;;;;14.85;51.18;97182.78;5091583;28;20027;-74
2022/02/17 11:16:15;;;;;;;24.35;16.55;;;;;;;14.53;52.06;97178.16;5090052;28;20042;-74
2022/02/17 11:18:42;;;;;;;27.85;17.35;;;;;;;13.14;55.16;97182.25;5090008;28;20111;-73